Time;durP1;ratioP1;P1;durP2;ratioP2;P2;SDS_P1;SDS_P2;PMS_P1;PMS_P2;Temp;Humidity;BMP_temperature;BMP_pressure;BME280_temperature;BME280_humidity;BME280_pressure;Samples;Min_cycle;Max_cycle;Signal;HPM_P1;HPM_P2
2024/01/23 00:01:11;;;;;;;4.15;1.20;;;6.50;77.60;;;;;;5035460;28;20057;-79
2024/01/23 00:03:37;;;;;;;5.78;0.82;;;6.50;77.20;;;;;;5017339;28;20030;-80
2024/01/23 00:06:02;;;;;;;4.70;0.93;;;6.50;77.10;;;;;;5017025;28;20049;-79
2024/01/23 00:08:29;;;;;;;5.00;1.15;;;6.50;77.20;;;;;;5021937;28;20029;-81
2024/01/23 00:10:56;;;;;;;4.55;1.00;;;6.50;76.00;;;;;;5017945;28;20059;-79
2024/01/23 00:13:21;;;;;;;6.07;1.23;;;6.40;75.90;;;;;;5019688;28;20018;-80
2024/01/23 00:15:47;;;;;;;3.47;1.27;;;6.40;75.50;;;;;;5034918;28;20489;-78
2024/01/23 00:18:13;;;;;;;4.90;1.08;;;6.40;75.60;;;;;;5034146;28;20030;-79
2024/01/23 00:20:38;;;;;;;6.47;1.40;;;6.30;75.60;;;;;;5016676;28;20048;-79
2024/01/23 00:23:04;;;;;;;4.32;1.33;;;6.30;75.90;;;;;;5034108;28;20045;-77
2024/01/23 00:25:30;;;;;;;8.38;1.35;;;6.30;73.80;;;;;;5035452;28;20029;-80
2024/01/23 00:27:56;;;;;;;6.40;1.38;;;6.30;72.30;;;;;;5018369;28;20094;-78
2024/01/23 00:30:21;;;;;;;4.65;1.48;;;6.30;72.20;;;;;;5033987;28;20037;-78
2024/01/23 00:32:47;;;;;;;3.72;1.17;;;6.20;71.90;;;;;;5015924;28;20017;-78
2024/01/23 00:35:14;;;;;;;6.03;1.23;;;6.20;70.90;;;;;;5016363;28;20157;-77
2024/01/23 00:37:39;;;;;;;8.52;1.50;;;6.20;70.40;;;;;;5016450;28;20050;-77
2024/01/23 00:40:06;;;;;;;6.40;1.55;;;6.20;68.60;;;;;;5000888;28;20041;-77
2024/01/23 00:42:33;;;;;;;6.32;1.40;;;6.30;68.70;;;;;;5034061;28;20026;-77
2024/01/23 00:44:59;;;;;;;6.25;1.33;;;6.40;67.40;;;;;;5016342;28;20040;-76
2024/01/23 00:47:25;;;;;;;5.93;1.35;;;6.40;68.20;;;;;;4999149;28;20029;-76
2024/01/23 00:49:50;;;;;;;5.15;1.63;;;6.50;67.40;;;;;;5016262;28;20029;-78
2024/01/23 00:52:16;;;;;;;6.18;1.33;;;6.50;68.00;;;;;;5015905;28;20355;-77
2024/01/23 00:54:41;;;;;;;4.68;1.38;;;6.50;68.90;;;;;;5016900;28;20036;-77
2024/01/23 00:57:07;;;;;;;7.13;1.00;;;6.50;69.60;;;;;;5037007;28;20025;-77
2024/01/23 00:59:33;;;;;;;6.88;1.33;;;6.50;69.70;;;;;;5040241;28;20029;-76
2024/01/23 01:01:58;;;;;;;4.93;1.23;;;6.40;70.50;;;;;;5036349;28;20016;-77
2024/01/23 01:04:24;;;;;;;4.60;0.80;;;6.40;71.00;;;;;;5030742;28;20033;-78
2024/01/23 01:06:50;;;;;;;5.50;1.58;;;6.40;71.20;;;;;;5002875;28;20022;-78
2024/01/23 01:09:17;;;;;;;5.35;0.93;;;6.40;72.00;;;;;;5019251;28;20037;-78
2024/01/23 01:11:44;;;;;;;10.98;1.02;;;6.30;72.30;;;;;;5019107;28;20474;-77
2024/01/23 01:14:10;;;;;;;6.07;0.80;;;6.30;72.50;;;;;;5019139;28;20029;-77
2024/01/23 01:16:36;;;;;;;6.25;1.38;;;6.40;71.60;;;;;;5018875;28;20481;-76
2024/01/23 01:19:03;;;;;;;5.82;1.27;;;6.30;71.60;;;;;;5019386;28;20028;-79
2024/01/23 01:21:29;;;;;;;6.68;1.25;;;6.40;71.80;;;;;;5018936;28;20437;-78
2024/01/23 01:23:54;;;;;;;3.65;0.98;;;6.40;70.90;;;;;;5020711;28;20087;-78
2024/01/23 01:26:20;;;;;;;8.60;2.05;;;6.40;70.30;;;;;;5020333;28;20048;-77
2024/01/23 01:28:45;;;;;;;6.88;1.30;;;6.50;70.20;;;;;;5021048;28;20068;-77
2024/01/23 01:31:11;;;;;;;5.47;1.20;;;6.50;70.00;;;;;;5020541;28;20525;-78
2024/01/23 01:33:37;;;;;;;4.20;1.40;;;6.50;73.20;;;;;;5018906;28;20022;-77
2024/01/23 01:36:03;;;;;;;8.02;1.65;;;6.50;73.50;;;;;;5018419;28;20633;-78
2024/01/23 01:38:30;;;;;;;6.75;1.90;;;6.40;72.60;;;;;;5018031;28;20052;-78
2024/01/23 01:40:58;;;;;;;9.00;1.83;;;6.30;73.40;;;;;;5018524;28;20025;-78
2024/01/23 01:43:29;;;;;;;5.00;1.05;;;6.20;73.60;;;;;;5002873;28;20049;-78
2024/01/23 01:46:11;;;;;;;4.90;1.30;;;6.20;73.20;;;;;;5018770;28;20021;-78
2024/01/23 01:48:40;;;;;;;6.35;1.73;;;6.20;73.60;;;;;;5019368;28;20052;-78
2024/01/23 01:51:06;;;;;;;9.18;1.50;;;6.10;73.70;;;;;;5020428;28;20018;-79
2024/01/23 01:53:33;;;;;;;7.68;1.70;;;6.00;73.30;;;;;;5019831;28;20171;-80
2024/01/23 01:55:58;;;;;;;9.95;2.00;;;6.00;73.10;;;;;;5019847;28;20462;-78
2024/01/23 01:58:27;;;;;;;6.28;1.50;;;6.00;72.60;;;;;;5019475;28;20080;-78
2024/01/23 02:00:53;;;;;;;10.35;1.92;;;6.00;72.60;;;;;;5018579;28;20474;-77
2024/01/23 02:03:24;;;;;;;8.82;1.60;;;6.10;71.90;;;;;;5036743;28;20021;-78
2024/01/23 02:05:50;;;;;;;9.90;1.92;;;6.10;71.70;;;;;;5038329;28;20044;-78
2024/01/23 02:08:17;;;;;;;8.50;1.85;;;6.20;71.80;;;;;;5036254;28;20029;-79
2024/01/23 02:10:44;;;;;;;6.93;1.63;;;6.20;71.60;;;;;;5019882;28;20461;-79
2024/01/23 02:13:09;;;;;;;7.35;1.85;;;6.20;71.60;;;;;;5018983;28;20112;-79
2024/01/23 02:15:35;;;;;;;6.70;1.83;;;6.20;71.20;;;;;;5018981;28;20067;-78
2024/01/23 02:18:01;;;;;;;9.00;1.50;;;6.20;71.10;;;;;;5019741;28;20547;-78
2024/01/23 02:20:27;;;;;;;7.82;1.85;;;6.30;70.90;;;;;;5021349;28;20562;-80
2024/01/23 02:22:53;;;;;;;5.82;1.58;;;6.30;71.10;;;;;;5020811;28;20061;-79
2024/01/23 02:25:18;;;;;;;9.38;1.80;;;6.30;71.70;;;;;;5020031;28;20494;-80
2024/01/23 02:27:44;;;;;;;6.63;1.75;;;6.30;71.80;;;;;;5018867;28;20029;-79
2024/01/23 02:30:11;;;;;;;8.70;1.90;;;6.30;73.60;;;;;;5021543;28;20474;-78
2024/01/23 02:32:36;;;;;;;8.60;1.67;;;6.30;73.00;;;;;;5021378;28;20052;-79
2024/01/23 02:35:02;;;;;;;10.98;1.88;;;6.20;73.50;;;;;;5019724;28;20025;-79
2024/01/23 02:37:28;;;;;;;11.85;1.65;;;6.20;73.90;;;;;;5001814;28;20080;-79
2024/01/23 02:39:55;;;;;;;13.23;2.08;;;6.10;74.90;;;;;;5036289;28;20455;-80
2024/01/23 02:42:20;;;;;;;4.38;1.60;;;6.00;75.90;;;;;;5017169;28;20025;-78
2024/01/23 02:44:46;;;;;;;10.60;1.63;;;5.80;77.10;;;;;;5016347;28;20103;-78
2024/01/23 02:47:13;;;;;;;6.53;1.50;;;5.70;77.80;;;;;;5016897;28;20112;-80
2024/01/23 02:49:39;;;;;;;8.48;1.70;;;5.70;78.10;;;;;;5016506;28;20021;-79
2024/01/23 02:52:04;;;;;;;10.55;1.75;;;5.70;78.20;;;;;;5036707;28;20443;-79
2024/01/23 02:54:31;;;;;;;9.38;1.65;;;5.70;78.80;;;;;;5016785;28;20033;-81
2024/01/23 02:56:57;;;;;;;4.78;1.30;;;5.70;78.30;;;;;;5003510;28;20032;-79
2024/01/23 02:59:23;;;;;;;7.22;1.55;;;5.70;77.20;;;;;;5017092;28;20030;-79
2024/01/23 03:01:50;;;;;;;11.10;1.42;;;5.60;76.90;;;;;;5019608;28;20036;-77
2024/01/23 03:04:15;;;;;;;9.65;1.88;;;5.70;77.10;;;;;;5017905;28;20481;-77
2024/01/23 03:06:41;;;;;;;10.32;1.92;;;5.60;76.40;;;;;;5019265;28;20022;-78
2024/01/23 03:09:10;;;;;;;10.20;1.55;;;5.70;76.40;;;;;;5017394;28;20071;-76
2024/01/23 03:11:37;;;;;;;6.57;2.13;;;5.70;75.50;;;;;;5031452;28;20038;-77
2024/01/23 03:14:03;;;;;;;5.60;1.40;;;5.70;75.20;;;;;;5032835;28;20057;-77
2024/01/23 03:16:29;;;;;;;8.55;1.52;;;5.70;74.90;;;;;;5015712;28;20052;-77
2024/01/23 03:18:54;;;;;;;7.65;1.52;;;5.70;73.70;;;;;;5015640;28;20017;-79
2024/01/23 03:21:21;;;;;;;8.25;1.67;;;5.80;73.60;;;;;;5015821;28;20025;-77
2024/01/23 03:23:47;;;;;;;7.57;1.70;;;5.70;73.60;;;;;;5015703;28;20033;-77
2024/01/23 03:26:12;;;;;;;4.80;1.50;;;5.80;72.80;;;;;;5015703;28;20469;-77
2024/01/23 03:28:38;;;;;;;11.23;1.77;;;5.70;73.10;;;;;;5015747;28;20033;-77
2024/01/23 03:31:03;;;;;;;9.70;1.60;;;5.70;73.50;;;;;;5015826;28;20057;-77
2024/01/23 03:33:29;;;;;;;10.38;2.03;;;5.80;72.70;;;;;;5015480;28;20053;-78
2024/01/23 03:35:55;;;;;;;6.07;1.58;;;5.80;72.70;;;;;;5015627;28;20033;-78
2024/01/23 03:38:21;;;;;;;16.73;2.20;;;5.70;72.50;;;;;;5016952;28;20042;-77
2024/01/23 03:40:46;;;;;;;8.10;1.67;;;5.80;72.70;;;;;;5017008;28;20118;-76
2024/01/23 03:43:12;;;;;;;11.20;2.10;;;5.80;72.00;;;;;;5017829;28;20029;-77
2024/01/23 03:45:38;;;;;;;8.82;2.28;;;5.90;72.20;;;;;;5015621;28;20076;-76
2024/01/23 03:48:04;;;;;;;8.65;1.73;;;5.90;72.30;;;;;;5015608;28;20040;-77
2024/01/23 03:50:30;;;;;;;10.50;2.65;;;5.80;72.50;;;;;;5015062;28;20075;-77
2024/01/23 03:52:55;;;;;;;9.93;1.85;;;5.80;72.70;;;;;;5020313;28;20026;-77
2024/01/23 03:55:22;;;;;;;11.40;1.98;;;5.80;73.30;;;;;;5023592;28;20458;-76
2024/01/23 03:57:47;;;;;;;10.55;1.40;;;5.80;73.00;;;;;;5010756;28;20033;-77
2024/01/23 04:00:14;;;;;;;8.27;1.45;;;5.80;72.50;;;;;;5003625;28;20486;-79
2024/01/23 04:02:40;;;;;;;9.10;1.45;;;5.80;72.70;;;;;;5016361;28;20022;-79
2024/01/23 04:05:07;;;;;;;10.30;1.63;;;5.90;72.50;;;;;;5015883;28;20041;-78
2024/01/23 04:07:33;;;;;;;9.75;2.17;;;5.90;71.80;;;;;;5015451;28;20394;-78
2024/01/23 04:09:59;;;;;;;9.45;1.30;;;5.80;71.50;;;;;;5015087;28;20127;-78
2024/01/23 04:12:26;;;;;;;10.52;1.70;;;5.80;71.70;;;;;;5015251;28;20478;-78
2024/01/23 04:14:52;;;;;;;8.07;1.58;;;5.80;71.80;;;;;;5015278;28;20030;-78
2024/01/23 04:17:17;;;;;;;10.40;1.38;;;5.80;71.50;;;;;;5014951;28;20023;-77
2024/01/23 04:19:43;;;;;;;11.15;2.55;;;5.80;71.70;;;;;;5014940;28;20030;-77
2024/01/23 04:22:10;;;;;;;10.93;2.72;;;5.80;72.00;;;;;;5032655;28;20017;-81
2024/01/23 04:24:40;;;;;;;14.65;2.42;;;5.80;71.20;;;;;;5015235;28;20128;-78
2024/01/23 04:27:06;;;;;;;23.77;2.50;;;5.80;71.30;;;;;;5015551;28;20484;-79
2024/01/23 04:29:32;;;;;;;9.85;2.15;;;5.80;71.40;;;;;;5015261;28;20045;-77
2024/01/23 04:31:57;;;;;;;10.93;1.80;;;5.70;71.30;;;;;;5019005;28;20029;-78
2024/01/23 04:34:23;;;;;;;10.48;2.00;;;5.70;71.50;;;;;;5018488;28;20474;-76
2024/01/23 04:36:49;;;;;;;13.52;2.78;;;5.80;71.30;;;;;;5020520;28;20356;-80
2024/01/23 04:39:17;;;;;;;17.88;2.67;;;5.80;71.20;;;;;;5036426;28;20040;-77
2024/01/23 04:41:43;;;;;;;16.13;2.70;;;5.70;71.20;;;;;;5019182;28;20025;-79
2024/01/23 04:44:09;;;;;;;14.50;3.08;;;5.70;71.10;;;;;;5018706;28;20029;-80
2024/01/23 04:46:37;;;;;;;13.70;2.60;;;5.70;71.30;;;;;;5018871;28;20026;-83
2024/01/23 04:49:03;;;;;;;10.70;2.50;;;5.70;71.00;;;;;;5018834;28;20120;-78
2024/01/23 04:51:29;;;;;;;12.38;2.28;;;5.70;70.90;;;;;;5018248;28;20065;-80
2024/01/23 04:53:55;;;;;;;13.50;2.35;;;5.80;70.60;;;;;;5018350;28;20025;-78
2024/01/23 04:56:21;;;;;;;7.38;1.80;;;5.80;70.60;;;;;;5018363;28;20134;-78
2024/01/23 04:58:48;;;;;;;13.80;2.35;;;5.80;70.50;;;;;;5018401;28;20470;-77
2024/01/23 05:01:17;;;;;;;13.65;2.28;;;5.90;70.40;;;;;;5018419;28;20124;-77
2024/01/23 05:03:43;;;;;;;16.52;2.63;;;5.90;70.00;;;;;;5018242;28;20055;-75
2024/01/23 05:06:09;;;;;;;10.40;2.63;;;5.90;70.00;;;;;;5018379;28;20037;-77
2024/01/23 05:08:34;;;;;;;15.00;3.15;;;5.90;70.30;;;;;;5018372;28;20084;-77
2024/01/23 05:11:00;;;;;;;13.05;2.90;;;5.90;70.00;;;;;;5018284;28;20031;-77
2024/01/23 05:13:25;;;;;;;10.65;2.10;;;6.00;70.30;;;;;;5017911;28;20029;-78
2024/01/23 05:15:51;;;;;;;15.23;3.67;;;6.00;70.20;;;;;;5018221;28;20052;-77
2024/01/23 05:18:16;;;;;;;11.98;2.45;;;6.00;70.20;;;;;;5018054;28;20053;-78
2024/01/23 05:20:42;;;;;;;16.15;3.47;;;6.00;70.00;;;;;;5018014;28;20032;-77
2024/01/23 05:23:09;;;;;;;13.25;3.65;;;6.00;70.30;;;;;;5017993;28;20497;-77
2024/01/23 05:25:35;;;;;;;12.02;3.00;;;6.10;70.50;;;;;;5017862;28;20091;-78
2024/01/23 05:28:00;;;;;;;12.70;3.30;;;6.00;70.30;;;;;;5017672;28;20025;-75
2024/01/23 05:30:26;;;;;;;12.13;2.17;;;6.10;69.60;;;;;;5017836;28;20611;-75
2024/01/23 05:32:52;;;;;;;12.07;2.65;;;6.10;69.90;;;;;;5017978;28;20343;-75
2024/01/23 05:35:17;;;;;;;10.27;2.30;;;6.10;69.40;;;;;;5018403;28;20030;-77
2024/01/23 05:37:43;;;;;;;13.20;2.47;;;6.10;69.70;;;;;;5017578;28;20517;-77
2024/01/23 05:40:13;;;;;;;15.45;3.30;;;6.10;69.60;;;;;;5023040;28;20025;-77
2024/01/23 05:42:40;;;;;;;13.73;2.28;;;6.00;69.30;;;;;;5019117;28;20024;-77
2024/01/23 05:45:07;;;;;;;10.90;2.25;;;6.00;69.30;;;;;;5017097;28;20033;-77
2024/01/23 05:47:32;;;;;;;9.00;2.85;;;6.00;69.50;;;;;;5017525;28;20470;-78
2024/01/23 05:49:58;;;;;;;10.52;2.10;;;6.00;69.10;;;;;;5035485;28;20033;-77
2024/01/23 05:52:24;;;;;;;11.65;2.20;;;6.10;69.00;;;;;;5017922;28;20030;-78
2024/01/23 05:54:50;;;;;;;11.55;2.50;;;6.10;68.60;;;;;;5017843;28;20075;-77
2024/01/23 05:57:17;;;;;;;11.38;2.72;;;6.20;68.30;;;;;;5017179;28;20084;-77
2024/01/23 05:59:42;;;;;;;11.70;2.30;;;6.10;68.40;;;;;;5017330;28;20116;-77
2024/01/23 06:02:08;;;;;;;10.95;2.22;;;6.10;68.70;;;;;;5034771;28;20056;-77
2024/01/23 06:04:34;;;;;;;10.90;1.70;;;6.10;68.20;;;;;;5017074;28;20486;-76
2024/01/23 06:07:00;;;;;;;8.85;1.98;;;6.10;67.70;;;;;;5017334;28;20029;-77
2024/01/23 06:09:26;;;;;;;14.73;3.60;;;6.10;67.60;;;;;;5016796;28;20087;-80
2024/01/23 06:11:52;;;;;;;9.52;2.55;;;6.20;67.80;;;;;;5034820;28;20029;-78
2024/01/23 06:14:20;;;;;;;11.05;2.10;;;6.10;67.50;;;;;;5016871;28;20026;-79
2024/01/23 06:16:45;;;;;;;11.73;2.88;;;6.10;67.80;;;;;;5016985;28;20022;-78
2024/01/23 06:19:11;;;;;;;10.40;2.33;;;6.20;67.70;;;;;;5016764;28;20037;-79
2024/01/23 06:21:39;;;;;;;12.45;3.15;;;6.20;67.10;;;;;;5033460;28;20029;-79
2024/01/23 06:24:05;;;;;;;10.43;3.15;;;6.20;67.70;;;;;;5034338;28;20029;-79
2024/01/23 06:26:32;;;;;;;11.20;2.40;;;6.20;67.00;;;;;;5016793;28;20032;-78
2024/01/23 06:28:58;;;;;;;10.35;1.95;;;6.20;67.10;;;;;;5000397;28;20125;-78
2024/01/23 06:31:27;;;;;;;11.50;2.22;;;6.30;66.90;;;;;;5033556;28;20504;-77
2024/01/23 06:33:53;;;;;;;9.77;2.00;;;6.20;67.10;;;;;;5016097;28;20030;-77
2024/01/23 06:36:20;;;;;;;7.47;1.80;;;6.20;67.40;;;;;;5016393;28;20036;-77
2024/01/23 06:38:46;;;;;;;10.38;2.55;;;6.20;67.00;;;;;;5016011;28;20052;-77
2024/01/23 06:41:12;;;;;;;10.00;2.33;;;6.20;67.10;;;;;;5016514;28;20018;-79
2024/01/23 06:43:37;;;;;;;12.57;2.65;;;6.20;67.10;;;;;;5015763;28;20367;-78
2024/01/23 06:46:03;;;;;;;15.60;2.65;;;6.20;66.80;;;;;;5021051;28;20021;-78
2024/01/23 06:48:30;;;;;;;10.60;2.40;;;6.20;67.00;;;;;;5033681;28;20021;-78
2024/01/23 06:50:57;;;;;;;13.48;2.85;;;6.20;66.80;;;;;;5031043;28;20053;-78
2024/01/23 06:53:23;;;;;;;7.53;1.77;;;6.20;67.50;;;;;;5032926;28;20029;-78
2024/01/23 06:55:48;;;;;;;11.15;2.17;;;6.20;67.30;;;;;;5015655;28;20030;-78
2024/01/23 06:58:14;;;;;;;11.48;2.00;;;6.20;68.10;;;;;;5033674;28;20032;-78
2024/01/23 07:00:40;;;;;;;13.00;2.33;;;6.20;68.50;;;;;;5016467;28;20458;-79
2024/01/23 07:03:09;;;;;;;10.27;2.00;;;6.00;70.20;;;;;;5015859;28;20124;-77
2024/01/23 07:05:35;;;;;;;13.02;2.55;;;5.90;71.20;;;;;;5015539;28;20086;-77
2024/01/23 07:08:03;;;;;;;11.02;2.70;;;5.90;71.60;;;;;;5015993;28;20129;-77
2024/01/23 07:10:29;;;;;;;9.38;2.22;;;5.90;72.30;;;;;;5016286;28;20103;-78
2024/01/23 07:12:56;;;;;;;13.45;2.90;;;5.90;72.60;;;;;;5015889;28;20148;-78
2024/01/23 07:15:21;;;;;;;12.13;2.30;;;5.90;73.10;;;;;;5016017;28;20033;-77
2024/01/23 07:17:47;;;;;;;11.80;3.10;;;5.80;73.40;;;;;;5016406;28;20021;-77
2024/01/23 07:20:12;;;;;;;9.25;2.03;;;5.80;73.90;;;;;;5016442;28;20021;-77
2024/01/23 07:22:38;;;;;;;13.27;2.28;;;5.80;74.30;;;;;;5015346;28;20072;-77
2024/01/23 07:25:04;;;;;;;10.35;2.38;;;5.80;74.80;;;;;;5032975;28;20040;-76
2024/01/23 07:27:30;;;;;;;14.15;2.65;;;5.80;75.10;;;;;;5032932;28;20539;-78
2024/01/23 07:29:56;;;;;;;9.50;2.25;;;5.80;75.20;;;;;;5015265;28;20470;-76
2024/01/23 07:32:21;;;;;;;11.82;2.10;;;5.70;75.30;;;;;;5015647;28;20025;-76
2024/01/23 07:34:48;;;;;;;12.15;2.40;;;5.70;75.60;;;;;;5015642;28;20018;-79
2024/01/23 07:37:14;;;;;;;7.72;2.38;;;5.80;76.00;;;;;;4999323;28;20128;-76
2024/01/23 07:39:40;;;;;;;11.60;1.98;;;5.80;77.50;;;;;;5015483;28;20128;-79
2024/01/23 07:42:06;;;;;;;10.15;1.98;;;5.60;78.90;;;;;;5032811;28;20048;-77
2024/01/23 07:44:39;;;;;;;11.93;1.90;;;5.50;80.30;;;;;;5015234;28;20025;-77
2024/01/23 07:47:07;;;;;;;8.18;1.75;;;5.30;81.00;;;;;;5033263;28;20359;-82
2024/01/23 07:49:33;;;;;;;6.63;1.67;;;5.30;81.50;;;;;;5015471;28;20451;-79
2024/01/23 07:51:58;;;;;;;6.55;1.63;;;5.40;82.70;;;;;;5014956;28;20088;-77
2024/01/23 07:54:24;;;;;;;7.00;1.25;;;5.30;81.80;;;;;;5015012;28;20017;-77
2024/01/23 07:57:03;;;;;;;4.18;0.95;;;5.30;81.90;;;;;;5015156;28;20383;-82
2024/01/23 07:59:30;;;;;;;5.85;1.48;;;5.10;81.70;;;;;;5014873;28;20043;-78
2024/01/23 08:01:57;;;;;;;7.90;1.27;;;5.10;81.50;;;;;;5015012;28;20029;-78
2024/01/23 08:04:29;;;;;;;4.38;1.30;;;5.00;81.90;;;;;;5014935;28;20099;-79
2024/01/23 08:06:54;;;;;;;6.55;1.42;;;4.90;82.40;;;;;;5020297;28;20043;-87
2024/01/23 08:09:22;;;;;;;6.75;1.40;;;5.10;82.00;;;;;;5005276;28;20128;-91
2024/01/23 08:11:48;;;;;;;5.10;2.03;;;5.40;81.50;;;;;;5022308;28;20072;-92
2024/01/23 08:14:17;;;;;;;5.38;1.73;;;5.60;80.30;;;;;;5021926;28;20021;-88
2024/01/23 08:16:44;;;;;;;5.38;1.10;;;6.00;78.50;;;;;;5020834;28;20032;-81
2024/01/23 08:19:10;;;;;;;4.95;1.17;;;6.30;77.50;;;;;;5019406;28;20037;-84
2024/01/23 08:21:39;;;;;;;8.32;1.50;;;6.40;76.00;;;;;;5003305;28;20103;-84
2024/01/23 08:24:06;;;;;;;5.47;1.77;;;6.60;76.10;;;;;;4985984;28;20033;-81
2024/01/23 08:26:37;;;;;;;6.85;2.10;;;6.70;75.00;;;;;;5005124;28;20371;-83
2024/01/23 08:29:06;;;;;;;7.55;2.47;;;6.90;74.70;;;;;;5038288;28;20433;-82
2024/01/23 08:31:32;;;;;;;12.27;2.92;;;7.00;73.20;;;;;;5019879;28;20037;-84
2024/01/23 08:33:58;;;;;;;6.72;2.42;;;6.90;73.00;;;;;;5002511;28;20398;-79
2024/01/23 08:36:24;;;;;;;9.63;2.45;;;6.70;73.60;;;;;;5018867;28;20032;-81
2024/01/23 08:38:50;;;;;;;10.23;2.35;;;6.60;74.00;;;;;;5018602;28;20052;-80
2024/01/23 08:41:15;;;;;;;11.50;2.92;;;6.40;74.80;;;;;;5002289;28;20026;-80
2024/01/23 08:43:41;;;;;;;9.50;2.22;;;6.30;75.40;;;;;;5018877;28;20025;-81
2024/01/23 08:46:06;;;;;;;12.05;2.47;;;6.10;75.80;;;;;;5018905;28;20033;-80
2024/01/23 08:48:32;;;;;;;11.75;2.97;;;6.10;75.90;;;;;;5036132;28;20100;-79
2024/01/23 08:50:58;;;;;;;10.77;3.00;;;6.10;76.10;;;;;;5018141;28;20505;-79
2024/01/23 08:53:24;;;;;;;15.40;3.78;;;6.20;75.40;;;;;;5018329;28;20044;-79
2024/01/23 08:55:49;;;;;;;12.55;2.90;;;6.20;75.10;;;;;;5019022;28;20032;-80
2024/01/23 08:58:18;;;;;;;20.08;4.85;;;6.40;74.10;;;;;;5018791;28;20079;-79
2024/01/23 09:00:44;;;;;;;22.75;4.40;;;6.40;74.20;;;;;;5018098;28;20018;-80
2024/01/23 09:03:10;;;;;;;25.13;6.55;;;6.60;73.60;;;;;;5002077;28;20033;-80
2024/01/23 09:05:36;;;;;;;20.55;5.45;;;6.80;72.80;;;;;;5018265;28;20072;-80
2024/01/23 09:08:01;;;;;;;10.05;2.50;;;6.90;72.30;;;;;;5018135;28;20029;-80
2024/01/23 09:10:28;;;;;;;15.38;3.00;;;6.80;72.70;;;;;;5035864;28;20031;-80
2024/01/23 09:12:54;;;;;;;10.13;2.85;;;7.00;72.60;;;;;;5034739;28;20488;-79
2024/01/23 09:15:19;;;;;;;14.75;3.08;;;7.20;72.20;;;;;;5017977;28;20113;-80
2024/01/23 09:17:46;;;;;;;11.52;2.38;;;7.30;69.70;;;;;;5017171;28;20033;-80
2024/01/23 09:20:12;;;;;;;7.85;1.92;;;7.40;68.30;;;;;;5017441;28;20544;-80
2024/01/23 09:22:40;;;;;;;8.65;1.90;;;7.40;68.00;;;;;;5018140;28;20035;-79
2024/01/23 09:25:06;;;;;;;7.25;2.00;;;7.60;66.80;;;;;;5018678;28;20083;-79
2024/01/23 09:27:31;;;;;;;9.52;1.70;;;7.70;65.30;;;;;;4993408;28;20026;-80
2024/01/23 09:29:57;;;;;;;7.35;1.88;;;7.70;64.60;;;;;;5000230;28;20034;-78
2024/01/23 09:32:23;;;;;;;9.02;1.83;;;7.70;64.60;;;;;;5012145;28;20061;-77
2024/01/23 09:34:48;;;;;;;8.05;1.98;;;7.80;65.00;;;;;;5029082;28;20419;-79
2024/01/23 09:37:14;;;;;;;11.38;2.50;;;7.80;65.70;;;;;;5004540;28;20569;-78
2024/01/23 09:39:40;;;;;;;10.10;2.58;;;7.80;65.00;;;;;;4998064;28;20041;-77
2024/01/23 09:42:08;;;;;;;10.40;2.55;;;8.00;65.00;;;;;;4998408;28;20021;-85
2024/01/23 09:44:35;;;;;;;8.50;2.38;;;8.30;63.70;;;;;;4999359;28;20493;-85
2024/01/23 09:47:04;;;;;;;8.77;2.25;;;8.40;64.20;;;;;;5001040;28;20030;-83
2024/01/23 09:49:32;;;;;;;11.57;2.67;;;8.40;62.60;;;;;;4998421;28;20383;-83
2024/01/23 09:52:03;;;;;;;13.00;2.63;;;8.40;63.60;;;;;;4998099;28;20030;-82
2024/01/23 09:54:31;;;;;;;8.85;2.15;;;8.50;62.90;;;;;;4998380;28;20048;-81
2024/01/23 09:56:58;;;;;;;10.93;2.35;;;8.50;63.10;;;;;;4998082;28;20022;-78
2024/01/23 09:59:24;;;;;;;12.20;2.42;;;8.60;62.00;;;;;;5003471;28;20049;-79
2024/01/23 10:01:49;;;;;;;13.85;2.65;;;8.80;61.00;;;;;;4997992;28;20026;-80
2024/01/23 10:04:20;;;;;;;8.18;2.25;;;8.90;61.00;;;;;;4997627;28;20092;-79
2024/01/23 10:06:45;;;;;;;8.68;2.30;;;8.90;61.20;;;;;;4997182;28;20025;-77
2024/01/23 10:09:12;;;;;;;12.18;3.13;;;8.90;60.00;;;;;;4997356;28;20038;-76
2024/01/23 10:11:38;;;;;;;10.23;2.28;;;8.60;61.20;;;;;;5015284;28;20018;-77
2024/01/23 10:14:05;;;;;;;15.85;2.38;;;8.00;63.00;;;;;;4997433;28;20072;-78
2024/01/23 10:16:31;;;;;;;11.68;2.60;;;7.60;64.40;;;;;;4997094;28;20030;-78
2024/01/23 10:18:57;;;;;;;11.57;2.15;;;7.20;66.80;;;;;;4996568;28;20036;-80
2024/01/23 10:21:23;;;;;;;11.18;2.20;;;7.10;68.80;;;;;;4997003;28;20487;-77
2024/01/23 10:23:50;;;;;;;14.88;2.30;;;6.90;69.20;;;;;;4997128;28;20391;-78
2024/01/23 10:26:19;;;;;;;14.43;2.50;;;6.80;69.10;;;;;;4997524;28;20583;-79
2024/01/23 10:28:46;;;;;;;10.48;2.50;;;6.60;70.90;;;;;;4996433;28;20113;-79
2024/01/23 10:31:12;;;;;;;12.65;2.80;;;6.40;71.10;;;;;;4996995;28;20032;-79
2024/01/23 10:33:38;;;;;;;14.23;3.70;;;6.30;71.50;;;;;;4998138;28;20018;-78
2024/01/23 10:36:09;;;;;;;11.10;2.28;;;6.30;70.50;;;;;;4996993;28;20037;-79
2024/01/23 10:38:35;;;;;;;11.85;2.17;;;6.40;69.10;;;;;;4980797;28;20545;-79
2024/01/23 10:41:04;;;;;;;14.13;3.78;;;6.60;67.60;;;;;;4993751;28;20065;-78
2024/01/23 10:43:30;;;;;;;11.32;2.70;;;6.80;68.00;;;;;;5009636;28;20023;-78
2024/01/23 10:46:03;;;;;;;10.88;2.72;;;7.30;66.30;;;;;;4976963;28;20473;-80
2024/01/23 10:48:30;;;;;;;9.63;2.50;;;7.60;65.20;;;;;;4978154;28;20030;-82
2024/01/23 10:51:01;;;;;;;10.75;2.70;;;8.00;63.80;;;;;;4995174;28;20022;-80
2024/01/23 10:53:37;;;;;;;13.70;2.55;;;8.30;62.90;;;;;;5009995;28;20490;-81
2024/01/23 10:56:06;;;;;;;7.32;2.10;;;8.70;60.50;;;;;;4977751;28;20030;-80
2024/01/23 10:58:38;;;;;;;11.10;2.13;;;8.60;60.10;;;;;;4977344;28;20384;-79
2024/01/23 11:01:05;;;;;;;10.85;2.67;;;8.50;60.80;;;;;;4977167;28;20023;-82
2024/01/23 11:03:34;;;;;;;11.40;2.67;;;8.60;61.00;;;;;;4977222;28;20129;-79
2024/01/23 11:06:07;;;;;;;10.73;2.45;;;9.00;60.00;;;;;;4994858;28;20490;-83
2024/01/23 11:08:47;;;;;;;10.07;3.17;;;9.40;58.90;;;;;;5009931;28;20031;-79
2024/01/23 11:11:43;;;;;;;9.77;2.22;;;9.80;57.40;;;;;;4976443;28;20061;-77
2024/01/23 11:14:18;;;;;;;8.52;2.40;;;10.00;56.80;;;;;;4976744;28;20489;-81
2024/01/23 11:17:06;;;;;;;9.68;2.28;;;10.20;55.40;;;;;;4976659;28;20090;-78
2024/01/23 11:19:43;;;;;;;9.45;2.25;;;10.70;53.90;;;;;;4976256;28;20129;-78
2024/01/23 11:22:09;;;;;;;8.07;1.95;;;11.10;51.30;;;;;;4976676;28;20025;-77
2024/01/23 11:24:43;;;;;;;7.20;1.85;;;11.00;50.50;;;;;;4976596;28;20081;-79
2024/01/23 11:27:17;;;;;;;9.60;2.33;;;10.90;48.90;;;;;;4976890;28;20387;-79
2024/01/23 11:29:46;;;;;;;8.68;2.75;;;10.60;49.80;;;;;;4977146;28;20030;-79
2024/01/23 11:32:23;;;;;;;6.10;2.50;;;10.60;49.60;;;;;;4994154;28;20031;-79
2024/01/23 11:35:20;;;;;;;8.23;2.30;;;10.60;49.90;;;;;;4976904;28;20030;-79
2024/01/23 11:38:17;;;;;;;12.65;2.55;;;10.90;49.30;;;;;;4978003;28;20042;-77
2024/01/23 11:40:42;;;;;;;7.63;2.53;;;11.30;48.20;;;;;;4995443;28;20049;-79
2024/01/23 11:43:27;;;;;;;10.80;2.15;;;11.50;49.00;;;;;;4995592;28;20422;-79
2024/01/23 11:45:52;;;;;;;11.50;2.42;;;11.10;48.20;;;;;;4996167;28;20040;-79
2024/01/23 11:49:22;;;;;;;8.80;2.45;;;10.90;48.80;;;;;;4995606;28;20422;-79
2024/01/23 11:52:08;;;;;;;8.10;2.03;;;10.20;50.80;;;;;;5012660;28;20026;-79
2024/01/23 11:54:34;;;;;;;8.65;2.72;;;9.80;51.50;;;;;;4995909;28;20332;-80
2024/01/23 11:56:59;;;;;;;7.80;2.38;;;9.80;52.40;;;;;;4995667;28;20029;-78
2024/01/23 11:59:32;;;;;;;6.43;2.30;;;10.40;50.80;;;;;;4996315;28;20018;-82
2024/01/23 12:01:59;;;;;;;9.13;2.38;;;10.80;49.20;;;;;;4997584;28;20026;-79
2024/01/23 12:04:26;;;;;;;8.10;2.10;;;10.70;49.40;;;;;;5000147;28;20061;-80
2024/01/23 12:06:52;;;;;;;8.23;2.22;;;10.80;47.30;;;;;;4995883;28;20574;-79
2024/01/23 12:09:17;;;;;;;8.23;2.28;;;10.30;48.00;;;;;;4996085;28;20072;-79
2024/01/23 12:11:51;;;;;;;6.80;1.83;;;10.40;47.50;;;;;;5013423;28;20034;-79
2024/01/23 12:14:18;;;;;;;7.93;1.83;;;10.40;48.00;;;;;;5013644;28;20026;-81
2024/01/23 12:16:45;;;;;;;13.45;2.85;;;10.50;49.10;;;;;;5035287;28;20057;-80
2024/01/23 12:19:11;;;;;;;6.97;2.20;;;10.60;48.20;;;;;;5016399;28;20036;-82
2024/01/23 12:21:38;;;;;;;8.85;2.78;;;10.60;47.70;;;;;;5029763;28;20033;-78
2024/01/23 12:24:04;;;;;;;10.13;2.78;;;10.80;47.40;;;;;;5035604;28;20072;-80
2024/01/23 12:26:31;;;;;;;8.93;2.30;;;10.70;47.70;;;;;;5028532;28;20025;-78
2024/01/23 12:28:57;;;;;;;7.07;2.65;;;10.50;49.10;;;;;;5018583;28;20377;-81
2024/01/23 12:31:23;;;;;;;8.60;3.65;;;10.50;49.10;;;;;;5000321;28;20030;-82
2024/01/23 12:33:48;;;;;;;15.38;5.35;;;10.20;50.30;;;;;;5017212;28;20026;-80
2024/01/23 12:36:20;;;;;;;16.95;4.75;;;9.80;51.50;;;;;;5016800;28;20059;-81
2024/01/23 12:38:45;;;;;;;10.40;3.78;;;9.30;53.00;;;;;;5015408;28;20053;-81
2024/01/23 12:41:11;;;;;;;10.40;3.20;;;9.30;53.10;;;;;;5015323;28;20034;-82
2024/01/23 12:43:37;;;;;;;8.77;2.70;;;9.30;53.20;;;;;;5015412;28;20025;-81
2024/01/23 12:46:02;;;;;;;8.05;2.50;;;9.10;53.50;;;;;;5033783;28;20038;-86
2024/01/23 12:48:29;;;;;;;10.45;2.72;;;9.00;54.90;;;;;;5016961;28;20022;-82
2024/01/23 12:50:56;;;;;;;12.32;2.65;;;8.90;55.40;;;;;;5017122;28;20072;-83